Knottsville, Kentucky
Current Conditions -  °F | °C
As of 7:56 AM on Wednesday 26 Nov 2014 (Local Time) from KOWB Reporting Station
Haze Haze  
Wind Chill: 27°   Ceiling: Unl
Heat Index: 27°   Visibility: 4mi
Dew Point: 25°   Wind: 0mph
Humidity: 92%   Direction: NA
Pressure: 30.16"   Gusts: NA
Location:  37.7285°N, 86.9409°W
Report Text: KOWB 261356Z 00000KT 4SM BR CLR M03/M04 A3016 RMK AO2 T10271038 SLP217
Loading
Personal Weather Stations






























Interactive Weather Map New forecast layout! Learn more

10-Day Weather Forecast

Advertisements
Track Severe Weather on mobile